createdAt,value
2022-11-17T00:00:49.012Z,27.77
2022-11-17T00:03:18.650Z,28.83
2022-11-17T00:05:46.868Z,30.63
2022-11-17T00:08:15.447Z,26.00
2022-11-17T00:10:44.367Z,25.13
2022-11-17T00:13:31.291Z,25.43
2022-11-17T00:15:59.527Z,25.93
2022-11-17T00:18:45.719Z,27.47
2022-11-17T00:21:21.464Z,26.93
2022-11-17T00:23:50.575Z,28.53
2022-11-17T00:26:21.397Z,25.43
2022-11-17T00:28:52.806Z,23.83
2022-11-17T00:31:39.037Z,27.20
2022-11-17T00:34:10.957Z,22.87
2022-11-17T00:36:42.209Z,23.60
2022-11-17T00:39:11.424Z,25.27
2022-11-17T00:41:40.231Z,25.23
2022-11-17T00:44:09.951Z,20.77
2022-11-17T00:46:39.432Z,26.87
2022-11-17T00:49:10.337Z,25.30
2022-11-17T00:51:39.696Z,21.93
2022-11-17T00:54:11.040Z,27.27
2022-11-17T00:56:39.665Z,24.00
2022-11-17T00:59:07.898Z,22.07
2022-11-17T01:01:36.560Z,25.93
2022-11-17T01:04:06.054Z,27.80
2022-11-17T01:06:39.465Z,25.10
2022-11-17T01:09:14.122Z,25.43
2022-11-17T01:11:43.339Z,18.93
2022-11-17T01:14:14.830Z,18.87
2022-11-17T01:16:43.158Z,22.30
2022-11-17T01:19:13.884Z,23.37
2022-11-17T01:21:43.744Z,26.70
2022-11-17T01:24:13.353Z,20.20
2022-11-17T01:26:42.432Z,22.17
2022-11-17T01:29:13.594Z,42.60
2022-11-17T01:31:44.407Z,29.00
2022-11-17T01:34:13.659Z,21.50
2022-11-17T01:37:02.677Z,37.43
2022-11-17T01:39:32.304Z,26.20
2022-11-17T01:42:06.607Z,33.53
2022-11-17T01:45:04.027Z,29.40
2022-11-17T01:47:44.252Z,38.70
2022-11-17T01:50:28.838Z,31.00
2022-11-17T01:53:01.153Z,46.67
2022-11-17T01:55:35.834Z,22.30
2022-11-17T01:58:10.722Z,34.63
2022-11-17T02:00:39.059Z,41.90
2022-11-17T02:03:08.097Z,26.37
2022-11-17T02:05:48.653Z,25.13
2022-11-17T02:08:19.841Z,20.27
2022-11-17T02:10:51.945Z,30.43
2022-11-17T02:13:21.374Z,24.50
2022-11-17T02:15:49.977Z,37.97
2022-11-17T02:18:19.160Z,19.67
2022-11-17T02:21:11.385Z,23.93
2022-11-17T02:24:30.203Z,37.07
2022-11-17T02:27:49.676Z,19.43
2022-11-17T02:30:20.834Z,22.03
2022-11-17T02:33:03.147Z,21.23
2022-11-17T02:35:42.031Z,22.17
2022-11-17T02:38:24.969Z,21.67
2022-11-17T02:41:05.953Z,18.37
2022-11-17T02:44:01.258Z,20.83
2022-11-17T02:46:34.756Z,19.17
2022-11-17T02:49:09.539Z,18.90
2022-11-17T02:51:39.457Z,21.73
2022-11-17T02:54:08.905Z,19.63
2022-11-17T02:56:42.901Z,17.63
2022-11-17T02:59:16.766Z,18.80
2022-11-17T03:02:22.394Z,20.47
2022-11-17T03:05:07.007Z,17.60
2022-11-17T03:07:58.062Z,17.80
2022-11-17T03:10:39.274Z,19.70
2022-11-17T03:13:19.803Z,19.60
2022-11-17T03:15:56.128Z,20.07
2022-11-17T03:18:31.428Z,18.40
2022-11-17T03:21:12.411Z,21.20
2022-11-17T03:23:47.017Z,19.47
2022-11-17T03:26:18.757Z,20.80
2022-11-17T03:28:48.339Z,22.83
2022-11-17T03:31:20.473Z,20.73
2022-11-17T03:33:51.090Z,21.17
2022-11-17T03:36:24.332Z,22.00
2022-11-17T03:39:01.749Z,22.13
2022-11-17T03:41:34.078Z,25.37
2022-11-17T03:44:05.163Z,24.63
2022-11-17T03:46:38.260Z,34.17
2022-11-17T03:49:19.052Z,25.07
2022-11-17T03:51:47.528Z,22.03
2022-11-17T03:54:16.766Z,24.77
2022-11-17T03:56:55.618Z,20.33
2022-11-17T03:59:28.427Z,25.47
2022-11-17T04:01:58.483Z,21.57
2022-11-17T04:04:46.840Z,26.97
2022-11-17T04:07:15.164Z,23.60
2022-11-17T04:09:43.352Z,23.43
2022-11-17T04:12:29.177Z,30.17
2022-11-17T04:15:14.916Z,46.10
2022-11-17T04:17:44.645Z,43.47
2022-11-17T04:20:13.125Z,47.43
2022-11-17T04:22:41.384Z,34.70
2022-11-17T04:25:30.457Z,43.03
2022-11-17T04:28:16.474Z,39.43
2022-11-17T04:30:44.817Z,41.70
2022-11-17T04:33:14.469Z,40.00
2022-11-17T04:35:42.692Z,35.20
2022-11-17T04:38:12.422Z,33.17
2022-11-17T04:41:00.772Z,26.77
2022-11-17T04:43:29.299Z,37.87
2022-11-17T04:46:00.729Z,36.00
2022-11-17T04:48:30.395Z,35.97
2022-11-17T04:50:59.577Z,28.67
2022-11-17T04:53:28.553Z,36.47
2022-11-17T04:56:01.024Z,42.17
2022-11-17T04:58:29.841Z,39.60
2022-11-17T05:01:12.261Z,39.97
2022-11-17T05:03:44.828Z,37.73
2022-11-17T05:06:15.760Z,33.33
2022-11-17T05:08:45.686Z,31.30
2022-11-17T05:11:34.028Z,36.20
2022-11-17T05:14:03.532Z,41.37
2022-11-17T05:16:49.274Z,33.37
2022-11-17T05:19:21.592Z,35.90
2022-11-17T05:21:50.435Z,33.00
2022-11-17T05:24:18.420Z,31.20
2022-11-17T05:26:48.901Z,19.63
2022-11-17T05:29:20.431Z,21.60
2022-11-17T05:31:49.852Z,27.50
2022-11-17T05:34:20.154Z,21.77
2022-11-17T05:36:48.471Z,27.63
2022-11-17T05:39:17.320Z,24.83
2022-11-17T05:41:46.612Z,19.33
2022-11-17T05:44:15.104Z,19.83
2022-11-17T05:46:43.381Z,22.03
2022-11-17T05:49:11.579Z,18.87
2022-11-17T05:51:41.262Z,18.87
2022-11-17T05:54:09.666Z,22.50
2022-11-17T05:56:41.616Z,18.13
2022-11-17T05:59:27.531Z,17.13
2022-11-17T06:02:01.519Z,29.90
2022-11-17T06:04:30.383Z,30.33
2022-11-17T06:07:02.173Z,22.83
2022-11-17T06:09:35.458Z,29.17
2022-11-17T06:12:06.228Z,23.87
2022-11-17T06:14:35.498Z,20.03
2022-11-17T06:17:09.508Z,16.97
2022-11-17T06:19:41.558Z,22.73
2022-11-17T06:22:13.318Z,20.03
2022-11-17T06:24:43.467Z,17.77
2022-11-17T06:27:12.436Z,20.97
2022-11-17T06:29:44.294Z,18.33
2022-11-17T06:32:16.261Z,23.50
2022-11-17T06:34:49.164Z,23.87
2022-11-17T06:37:21.683Z,21.80
2022-11-17T06:39:49.985Z,20.77
2022-11-17T06:42:18.189Z,20.50
2022-11-17T06:44:46.423Z,15.30
2022-11-17T06:47:14.759Z,17.90
2022-11-17T06:49:43.015Z,13.97
2022-11-17T06:52:11.705Z,23.17
2022-11-17T06:54:41.362Z,16.27
2022-11-17T06:57:09.651Z,15.77
2022-11-17T06:59:37.932Z,16.17
2022-11-17T07:02:06.262Z,16.90
2022-11-17T07:04:34.693Z,23.13
2022-11-17T07:07:03.125Z,16.30
2022-11-17T07:09:31.396Z,17.03
2022-11-17T07:12:01.075Z,20.70
2022-11-17T07:14:29.372Z,14.43
2022-11-17T07:16:57.748Z,16.73
2022-11-17T07:19:26.102Z,17.03
2022-11-17T07:21:54.423Z,13.27
2022-11-17T07:24:22.675Z,14.43
2022-11-17T07:26:50.887Z,13.03
2022-11-17T07:29:20.536Z,14.00
2022-11-17T07:31:48.835Z,13.47
2022-11-17T07:34:17.095Z,15.57
2022-11-17T07:36:45.402Z,15.27
2022-11-17T07:39:20.999Z,15.13
2022-11-17T07:41:50.065Z,11.37
2022-11-17T07:44:18.388Z,15.40
2022-11-17T07:46:48.050Z,15.20
2022-11-17T07:49:17.074Z,13.33
2022-11-17T07:51:45.329Z,14.40
2022-11-17T07:54:13.660Z,13.77
2022-11-17T07:56:41.932Z,14.20
2022-11-17T07:59:10.402Z,10.23
2022-11-17T08:01:38.871Z,11.87
2022-11-17T08:04:08.666Z,10.93
2022-11-17T08:06:38.078Z,11.10
2022-11-17T08:09:07.250Z,10.67
2022-11-17T08:11:35.612Z,11.27
2022-11-17T08:14:03.932Z,11.40
2022-11-17T08:16:32.234Z,10.70
2022-11-17T08:19:00.718Z,10.03
2022-11-17T08:21:30.443Z,11.63
2022-11-17T08:24:00.232Z,11.57
2022-11-17T08:26:28.647Z,10.43
2022-11-17T08:28:59.016Z,10.47
2022-11-17T08:31:27.638Z,11.20
2022-11-17T08:33:55.930Z,11.37
2022-11-17T08:36:24.438Z,11.43
2022-11-17T08:38:54.835Z,13.17
2022-11-17T08:41:23.950Z,12.53
2022-11-17T08:43:52.362Z,12.20
2022-11-17T08:46:20.596Z,11.90
2022-11-17T08:48:52.268Z,11.63
2022-11-17T08:51:23.909Z,12.27
2022-11-17T08:53:53.562Z,11.63
2022-11-17T08:56:21.865Z,12.20
2022-11-17T08:58:50.085Z,13.83
2022-11-17T09:01:18.716Z,12.40
2022-11-17T09:03:48.767Z,11.73
2022-11-17T09:06:20.190Z,12.93
2022-11-17T09:08:48.845Z,13.43
2022-11-17T09:11:18.746Z,11.17
2022-11-17T09:13:47.336Z,11.50
2022-11-17T09:16:17.255Z,10.90
2022-11-17T09:18:45.643Z,13.90
2022-11-17T09:21:16.363Z,12.37
2022-11-17T09:23:44.847Z,12.80
2022-11-17T09:26:16.306Z,11.10
2022-11-17T09:28:46.235Z,10.77
2022-11-17T09:31:19.557Z,10.57
2022-11-17T09:33:48.145Z,12.57
2022-11-17T09:36:17.816Z,10.30
2022-11-17T09:38:46.775Z,12.97
2022-11-17T09:41:26.507Z,10.87
2022-11-17T09:44:07.604Z,11.07
2022-11-17T09:46:54.021Z,11.20
2022-11-17T09:49:39.621Z,11.27
2022-11-17T09:52:18.967Z,12.00
2022-11-17T09:54:54.840Z,14.73
2022-11-17T09:57:31.666Z,12.53
2022-11-17T10:00:15.655Z,11.50
2022-11-17T10:02:44.756Z,12.90
2022-11-17T10:05:18.019Z,13.07
2022-11-17T10:07:50.792Z,14.77
2022-11-17T10:10:25.010Z,13.70
2022-11-17T10:12:58.665Z,13.03
2022-11-17T10:15:34.196Z,11.37
2022-11-17T10:18:02.549Z,11.87
2022-11-17T10:20:30.927Z,11.47
2022-11-17T10:22:59.738Z,12.70
2022-11-17T10:25:40.000Z,11.73
2022-11-17T10:28:12.832Z,11.70
2022-11-17T10:30:55.204Z,12.67
2022-11-17T10:33:37.660Z,12.50
2022-11-17T10:36:16.298Z,10.70
2022-11-17T10:38:46.646Z,11.57
2022-11-17T10:41:19.786Z,13.40
2022-11-17T10:43:58.657Z,11.13
2022-11-17T10:46:34.272Z,11.10
2022-11-17T10:49:26.443Z,11.23
2022-11-17T10:52:07.709Z,14.07
2022-11-17T10:54:36.094Z,11.30
2022-11-17T10:57:09.562Z,11.67
2022-11-17T10:59:47.242Z,12.67
2022-11-17T11:02:30.516Z,13.33
2022-11-17T11:05:12.258Z,12.27
2022-11-17T11:07:41.246Z,13.93
2022-11-17T11:10:18.862Z,13.97
2022-11-17T11:12:51.857Z,15.30
2022-11-17T11:15:23.079Z,14.07
2022-11-17T11:17:53.928Z,12.60
2022-11-17T11:20:37.426Z,12.97
2022-11-17T11:23:16.850Z,13.43
2022-11-17T11:25:52.828Z,12.37
2022-11-17T11:28:42.549Z,12.93
2022-11-17T11:31:24.547Z,13.80
2022-11-17T11:34:03.774Z,14.57
2022-11-17T11:36:38.040Z,12.97
2022-11-17T11:39:17.753Z,15.70
2022-11-17T11:42:16.599Z,12.63
2022-11-17T11:45:15.077Z,14.60
2022-11-17T11:48:10.868Z,15.00
2022-11-17T11:50:50.479Z,13.37
2022-11-17T11:53:33.567Z,14.73
2022-11-17T11:56:18.878Z,14.60
2022-11-17T11:58:54.634Z,14.27
2022-11-17T12:01:25.036Z,15.40
2022-11-17T12:04:09.101Z,14.73
2022-11-17T12:06:53.912Z,15.90
2022-11-17T12:09:49.499Z,16.07
2022-11-17T12:12:21.876Z,12.63
2022-11-17T12:15:33.913Z,14.17
2022-11-17T12:18:07.086Z,14.27
2022-11-17T12:20:58.063Z,15.00
2022-11-17T12:24:03.288Z,14.87
2022-11-17T12:26:34.124Z,13.47
2022-11-17T12:29:30.904Z,13.63
2022-11-17T12:32:01.830Z,12.83
2022-11-17T12:34:33.722Z,14.77
2022-11-17T12:37:26.472Z,16.80
2022-11-17T12:40:08.933Z,12.60
2022-11-17T12:42:38.317Z,13.83
2022-11-17T12:45:12.702Z,14.00
2022-11-17T12:47:46.190Z,14.23
2022-11-17T12:50:49.783Z,13.90
2022-11-17T12:53:34.431Z,12.40
2022-11-17T12:56:42.962Z,10.77
2022-11-17T12:59:56.211Z,12.80
2022-11-17T13:02:49.054Z,12.67
2022-11-17T13:05:21.959Z,14.43
2022-11-17T13:07:50.737Z,11.60
2022-11-17T13:10:29.546Z,14.80
2022-11-17T13:13:18.523Z,12.90
2022-11-17T13:15:51.260Z,12.73
2022-11-17T13:18:31.689Z,14.37
2022-11-17T13:21:01.080Z,14.43
2022-11-17T13:23:31.399Z,11.73
2022-11-17T13:26:12.063Z,12.30
2022-11-17T13:28:43.709Z,14.17
2022-11-17T13:31:18.734Z,14.47
2022-11-17T13:33:58.508Z,14.10
2022-11-17T13:36:27.395Z,13.13
2022-11-17T13:39:00.569Z,13.93
2022-11-17T13:41:33.992Z,11.47
2022-11-17T13:44:04.066Z,12.33
2022-11-17T13:46:32.329Z,11.93
2022-11-17T13:49:00.722Z,11.47
2022-11-17T13:51:38.566Z,12.57
2022-11-17T13:54:19.912Z,11.57
2022-11-17T13:56:53.815Z,11.83
2022-11-17T13:59:27.906Z,12.63
2022-11-17T14:02:25.369Z,11.37
2022-11-17T14:05:23.944Z,12.13
2022-11-17T14:07:53.984Z,11.53
2022-11-17T14:10:32.085Z,10.63
2022-11-17T14:13:29.932Z,11.47
2022-11-17T14:16:01.952Z,13.03
2022-11-17T14:18:38.005Z,11.77
2022-11-17T14:21:13.615Z,11.37
2022-11-17T14:23:43.172Z,11.37
2022-11-17T14:26:20.729Z,12.10
2022-11-17T14:28:50.622Z,11.07
2022-11-17T14:31:20.675Z,12.87
2022-11-17T14:33:50.527Z,10.20
2022-11-17T14:36:19.412Z,12.03
2022-11-17T14:38:48.646Z,11.50
2022-11-17T14:41:17.945Z,10.73
2022-11-17T14:43:46.359Z,14.03
2022-11-17T14:46:24.429Z,12.43
2022-11-17T14:48:53.992Z,10.83
2022-11-17T14:51:22.780Z,10.73
2022-11-17T14:53:51.232Z,11.37
2022-11-17T14:56:22.759Z,11.03
2022-11-17T14:58:56.721Z,12.60
2022-11-17T15:01:30.579Z,12.00
2022-11-17T15:04:20.666Z,9.63
2022-11-17T15:06:51.833Z,9.63
2022-11-17T15:09:20.648Z,9.77
2022-11-17T15:11:49.065Z,11.23
2022-11-17T15:14:17.802Z,10.10
2022-11-17T15:16:47.870Z,10.97
2022-11-17T15:19:16.159Z,11.13
2022-11-17T15:21:44.505Z,10.50
2022-11-17T15:24:13.391Z,11.63
2022-11-17T15:26:42.024Z,12.73
2022-11-17T15:29:15.974Z,11.33
2022-11-17T15:31:44.768Z,10.57
2022-11-17T15:34:19.885Z,10.80
2022-11-17T15:36:49.040Z,10.23
2022-11-17T15:39:18.003Z,10.60
2022-11-17T15:41:46.769Z,11.40
2022-11-17T15:44:15.577Z,10.60
2022-11-17T15:46:47.354Z,10.20
2022-11-17T15:49:18.003Z,11.30
2022-11-17T15:51:46.722Z,11.63
2022-11-17T15:54:20.337Z,12.43
2022-11-17T15:56:49.434Z,11.73
2022-11-17T15:59:18.137Z,13.37
2022-11-17T16:01:46.692Z,12.20
2022-11-17T16:04:17.373Z,13.97
2022-11-17T16:06:47.118Z,15.60
2022-11-17T16:09:17.314Z,17.00
2022-11-17T16:11:46.234Z,15.33
2022-11-17T16:14:15.248Z,16.53
2022-11-17T16:16:43.850Z,16.97
2022-11-17T16:19:12.222Z,16.50
2022-11-17T16:21:41.829Z,17.10
2022-11-17T16:24:12.749Z,18.67
2022-11-17T16:26:41.040Z,17.27
2022-11-17T16:29:09.990Z,18.30
2022-11-17T16:31:39.723Z,17.37
2022-11-17T16:34:12.830Z,17.57
2022-11-17T16:36:44.349Z,17.93
2022-11-17T16:39:16.703Z,18.30
2022-11-17T16:41:46.482Z,18.87
2022-11-17T16:44:17.671Z,18.47
2022-11-17T16:46:48.428Z,18.33
2022-11-17T16:49:19.642Z,18.97
2022-11-17T16:51:51.277Z,18.50
2022-11-17T16:54:20.198Z,19.27
2022-11-17T16:56:49.322Z,17.93
2022-11-17T16:59:17.877Z,18.43
2022-11-17T17:01:47.505Z,18.33
2022-11-17T17:04:15.833Z,16.53
2022-11-17T17:06:46.301Z,18.73
2022-11-17T17:09:17.887Z,18.60
2022-11-17T17:11:47.888Z,18.13
2022-11-17T17:14:17.256Z,19.30
2022-11-17T17:16:45.580Z,18.77
2022-11-17T17:19:16.386Z,18.60
2022-11-17T17:21:46.596Z,18.23
2022-11-17T17:24:16.307Z,19.37
2022-11-17T17:26:45.421Z,18.57
2022-11-17T17:29:15.048Z,19.50
2022-11-17T17:31:43.754Z,19.90
2022-11-17T17:34:13.893Z,20.10
2022-11-17T17:36:43.015Z,21.33
2022-11-17T17:39:19.786Z,19.77
2022-11-17T17:41:50.200Z,19.83
2022-11-17T17:44:24.438Z,18.80
2022-11-17T17:46:53.488Z,19.77
2022-11-17T17:49:21.838Z,20.43
2022-11-17T17:51:50.314Z,22.40
2022-11-17T17:54:24.081Z,21.30
2022-11-17T17:56:52.720Z,22.10
2022-11-17T17:59:21.204Z,22.60
2022-11-17T18:01:49.692Z,22.33
2022-11-17T18:04:17.986Z,22.73
2022-11-17T18:06:48.275Z,20.53
2022-11-17T18:09:20.445Z,21.47
2022-11-17T18:11:51.172Z,22.57
2022-11-17T18:14:24.368Z,21.63
2022-11-17T18:16:53.929Z,20.27
2022-11-17T18:19:26.857Z,21.77
2022-11-17T18:21:56.695Z,21.20
2022-11-17T18:24:26.644Z,21.57
2022-11-17T18:26:54.822Z,23.17
2022-11-17T18:29:23.071Z,21.53
2022-11-17T18:31:51.268Z,20.50
2022-11-17T18:34:22.104Z,21.83
2022-11-17T18:36:51.484Z,21.33
2022-11-17T18:39:21.343Z,20.23
2022-11-17T18:41:51.080Z,21.97
2022-11-17T18:44:20.474Z,21.93
2022-11-17T18:46:48.837Z,21.57
2022-11-17T18:49:17.540Z,21.30
2022-11-17T18:51:46.268Z,21.17
2022-11-17T18:54:14.787Z,23.13
2022-11-17T18:56:44.473Z,22.17
2022-11-17T18:59:14.965Z,24.50
2022-11-17T19:01:44.255Z,21.60
2022-11-17T19:04:14.827Z,22.13
2022-11-17T19:06:43.166Z,21.33
2022-11-17T19:09:12.547Z,21.43
2022-11-17T19:11:41.225Z,23.17
2022-11-17T19:14:09.919Z,22.97
2022-11-17T19:16:44.346Z,23.43
2022-11-17T19:19:15.200Z,23.67
2022-11-17T19:21:44.640Z,23.87
2022-11-17T19:24:13.180Z,22.47
2022-11-17T19:26:42.802Z,24.23
2022-11-17T19:29:17.224Z,23.17
2022-11-17T19:31:48.602Z,24.60
2022-11-17T19:34:17.316Z,24.63
2022-11-17T19:36:45.836Z,26.77
2022-11-17T19:39:15.569Z,22.43
2022-11-17T19:41:45.227Z,24.60
2022-11-17T19:44:13.877Z,25.60
2022-11-17T19:46:43.276Z,25.53
2022-11-17T19:49:14.287Z,24.83
2022-11-17T19:51:42.926Z,25.63
2022-11-17T19:54:13.450Z,26.13
2022-11-17T19:56:41.894Z,25.60
2022-11-17T19:59:15.589Z,25.30
2022-11-17T20:01:45.091Z,26.17
2022-11-17T20:04:14.927Z,26.73
2022-11-17T20:06:43.230Z,25.03
2022-11-17T20:09:13.900Z,26.87
2022-11-17T20:11:43.134Z,25.43
2022-11-17T20:14:11.461Z,26.27
2022-11-17T20:16:39.655Z,26.90
2022-11-17T20:19:07.980Z,28.03
2022-11-17T20:21:37.572Z,25.93
2022-11-17T20:24:06.373Z,25.30
2022-11-17T20:26:36.293Z,28.23
2022-11-17T20:29:04.610Z,25.67
2022-11-17T20:31:36.345Z,24.47
2022-11-17T20:34:06.402Z,24.93
2022-11-17T20:36:37.372Z,25.67
2022-11-17T20:39:07.802Z,25.27
2022-11-17T20:41:36.538Z,25.47
2022-11-17T20:44:05.603Z,27.33
2022-11-17T20:46:33.886Z,24.47
2022-11-17T20:49:02.396Z,26.77
2022-11-17T20:51:30.638Z,25.33
2022-11-17T20:54:00.259Z,27.87
2022-11-17T20:56:30.363Z,28.17
2022-11-17T20:58:58.614Z,24.97
2022-11-17T21:01:26.983Z,26.07
2022-11-17T21:03:55.237Z,24.93
2022-11-17T21:06:23.989Z,24.03
2022-11-17T21:08:52.866Z,23.57
2022-11-17T21:11:42.144Z,24.80
2022-11-17T21:14:12.499Z,26.13
2022-11-17T21:16:44.335Z,25.13
2022-11-17T21:19:13.083Z,27.97
2022-11-17T21:21:41.568Z,26.43
2022-11-17T21:24:11.428Z,27.87
2022-11-17T21:26:41.184Z,29.13
2022-11-17T21:29:09.491Z,28.87
2022-11-17T21:31:37.947Z,27.37
2022-11-17T21:34:08.231Z,25.07
2022-11-17T21:36:37.243Z,26.20
2022-11-17T21:39:05.563Z,25.50
2022-11-17T21:41:37.817Z,26.50
2022-11-17T21:44:07.463Z,25.23
2022-11-17T21:46:36.268Z,26.37
2022-11-17T21:49:04.914Z,27.23
2022-11-17T21:51:38.238Z,25.47
2022-11-17T21:54:09.765Z,22.53
2022-11-17T21:56:38.448Z,25.60
2022-11-17T21:59:12.628Z,26.97
2022-11-17T22:01:41.609Z,26.00
2022-11-17T22:04:11.388Z,27.33
2022-11-17T22:06:40.314Z,28.13
2022-11-17T22:09:09.177Z,25.90
2022-11-17T22:11:38.771Z,23.63
2022-11-17T22:14:11.765Z,27.80
2022-11-17T22:16:42.742Z,26.63
2022-11-17T22:19:12.434Z,26.63
2022-11-17T22:21:41.313Z,23.27
2022-11-17T22:24:12.031Z,24.63
2022-11-17T22:26:42.333Z,25.73
2022-11-17T22:29:14.501Z,28.03
2022-11-17T22:31:43.220Z,25.07
2022-11-17T22:34:11.588Z,25.33
2022-11-17T22:36:39.825Z,27.53
2022-11-17T22:39:09.280Z,25.87
2022-11-17T22:41:37.977Z,24.87
2022-11-17T22:44:07.392Z,28.47
2022-11-17T22:46:36.998Z,27.30
2022-11-17T22:49:05.188Z,24.77
2022-11-17T22:51:51.658Z,27.97
2022-11-17T22:54:19.866Z,27.07
2022-11-17T22:56:48.240Z,27.43
2022-11-17T22:59:16.888Z,26.50
2022-11-17T23:01:48.289Z,29.43
2022-11-17T23:04:17.548Z,24.93
2022-11-17T23:06:46.488Z,26.43
2022-11-17T23:09:14.836Z,26.93
2022-11-17T23:11:44.089Z,26.90
2022-11-17T23:14:14.841Z,28.43
2022-11-17T23:16:43.889Z,30.77
2022-11-17T23:19:16.232Z,27.17
2022-11-17T23:21:44.839Z,27.77
2022-11-17T23:24:14.856Z,30.00
2022-11-17T23:26:44.126Z,26.50
2022-11-17T23:29:12.620Z,25.90
2022-11-17T23:31:44.134Z,24.80
2022-11-17T23:34:14.675Z,25.80
2022-11-17T23:36:42.905Z,26.13
2022-11-17T23:39:11.503Z,26.63
2022-11-17T23:41:39.761Z,28.80
2022-11-17T23:44:09.206Z,25.63
2022-11-17T23:46:37.385Z,26.17
2022-11-17T23:49:05.802Z,25.77
2022-11-17T23:51:36.751Z,25.87
2022-11-17T23:54:05.298Z,26.13
2022-11-17T23:56:34.667Z,24.17
2022-11-17T23:59:03.532Z,26.93
